Terminal Aerodrome Forecast
Issued by NWS

Home | Current Version | Previous Version | Text Only | Print | Product List | Glossary On
Versions: 1 2 3 4 5 6 7 8 9 10 11 12 13 14 15 16
000
FTUS42 KTBW 301700
TAFPIE
TAF
KPIE 301726Z 3018/3118 27009KT P6SM SCT025 BKN035
      TEMPO 3018/3021 BKN025
     FM302100 33013KT P6SM SCT250
     FM310000 35010KT P6SM SCT250
     FM310400 02009KT P6SM SCT250=

USA.gov is the U.S. government's official web portal to all federal, state and local government web resources and services.